createdAt,value
2018-12-18T00:02:17.761Z,72.70
2018-12-18T00:07:20.356Z,72.70
2018-12-18T00:12:23.365Z,73.00
2018-12-18T00:17:26.288Z,73.40
2018-12-18T00:22:29.307Z,73.40
2018-12-18T00:27:31.890Z,73.30
2018-12-18T00:32:35.201Z,73.50
2018-12-18T00:37:38.011Z,73.80
2018-12-18T00:42:40.613Z,72.90
2018-12-18T00:47:44.792Z,72.30
2018-12-18T00:52:48.345Z,71.80
2018-12-18T00:57:50.982Z,71.70
2018-12-18T01:02:54.190Z,72.10
2018-12-18T01:07:56.763Z,72.00
2018-12-18T01:12:59.330Z,72.00
2018-12-18T01:18:01.910Z,72.30
2018-12-18T01:23:08.244Z,72.30
2018-12-18T01:28:11.456Z,72.60
2018-12-18T01:33:14.043Z,74.20
2018-12-18T01:38:16.632Z,74.80
2018-12-18T01:43:19.205Z,76.90
2018-12-18T01:48:22.370Z,79.30
2018-12-18T01:53:24.966Z,80.80
2018-12-18T01:58:27.549Z,81.90
2018-12-18T02:03:30.813Z,83.20
2018-12-18T02:08:33.410Z,83.10
2018-12-18T02:13:35.994Z,82.40
2018-12-18T02:18:38.745Z,81.50
2018-12-18T02:23:41.810Z,80.90
2018-12-18T02:28:44.863Z,81.50
2018-12-18T02:33:47.425Z,81.50
2018-12-18T02:38:51.061Z,82.80
2018-12-18T02:43:53.652Z,83.10
2018-12-18T02:48:56.426Z,83.40
2018-12-18T02:53:59.138Z,82.50
2018-12-18T02:59:02.142Z,82.90
2018-12-18T03:09:19.211Z,81.50
2018-12-18T03:14:22.194Z,80.90
2018-12-18T03:19:24.765Z,80.40
2018-12-18T03:24:27.335Z,80.00
2018-12-18T03:29:30.318Z,79.60
2018-12-18T03:34:33.428Z,79.70
2018-12-18T03:39:37.744Z,79.20
2018-12-18T03:44:40.299Z,78.70
2018-12-18T03:49:42.930Z,78.40
2018-12-18T03:54:45.489Z,78.40
2018-12-18T03:59:48.470Z,78.50
2018-12-18T04:04:51.755Z,78.40
2018-12-18T04:09:54.913Z,78.80
2018-12-18T04:14:58.520Z,78.80
2018-12-18T04:20:01.114Z,79.30
2018-12-18T04:25:04.067Z,79.40
2018-12-18T04:30:07.290Z,79.20
2018-12-18T04:35:10.494Z,79.40
2018-12-18T04:40:13.080Z,79.00
2018-12-18T04:45:15.873Z,78.70
2018-12-18T04:50:21.989Z,78.50
2018-12-18T04:55:26.351Z,79.70
2018-12-18T05:00:28.933Z,80.30
2018-12-18T05:05:31.509Z,80.00
2018-12-18T05:10:34.565Z,80.20
2018-12-18T05:15:37.160Z,80.40
2018-12-18T05:20:39.889Z,79.80
2018-12-18T05:25:44.426Z,80.10
2018-12-18T05:30:46.998Z,80.80
2018-12-18T05:35:49.839Z,81.30
2018-12-18T05:40:52.420Z,81.10
2018-12-18T05:45:57.904Z,82.60
2018-12-18T05:51:00.618Z,82.80
2018-12-18T05:56:03.210Z,83.10
2018-12-18T06:01:06.372Z,83.60
2018-12-18T06:06:08.989Z,82.90
2018-12-18T06:11:14.157Z,83.10
2018-12-18T06:16:17.086Z,83.00
2018-12-18T06:21:21.325Z,82.50
2018-12-18T06:26:23.894Z,81.30
2018-12-18T06:31:26.475Z,82.60
2018-12-18T06:36:29.051Z,82.90
2018-12-18T06:41:32.744Z,82.70
2018-12-18T06:46:35.322Z,82.40
2018-12-18T06:51:37.896Z,82.00
2018-12-18T06:56:40.480Z,81.10
2018-12-18T07:01:43.757Z,80.50
2018-12-18T07:06:46.454Z,80.20
2018-12-18T07:11:49.046Z,79.80
2018-12-18T07:16:51.673Z,79.30
2018-12-18T07:21:54.259Z,79.40
2018-12-18T07:26:56.841Z,79.10
2018-12-18T07:31:59.412Z,78.90
2018-12-18T07:37:02.006Z,79.70
2018-12-18T07:42:04.603Z,81.60
2018-12-18T07:47:07.188Z,83.10
2018-12-18T07:52:09.765Z,83.80
2018-12-18T07:57:12.349Z,82.40
2018-12-18T08:02:15.006Z,81.10
2018-12-18T08:07:17.603Z,80.40
2018-12-18T08:12:22.299Z,79.30
2018-12-18T08:17:25.116Z,78.20
2018-12-18T08:22:27.841Z,78.20
2018-12-18T08:27:30.428Z,77.60
2018-12-18T08:32:33.050Z,76.60
2018-12-18T08:37:36.071Z,76.30
2018-12-18T08:42:38.652Z,76.70
2018-12-18T08:47:41.221Z,76.30
2018-12-18T08:52:44.517Z,77.00
2018-12-18T08:57:49.286Z,76.70
2018-12-18T09:02:52.424Z,76.70
2018-12-18T09:07:59.435Z,75.80
2018-12-18T09:13:02.005Z,76.00
2018-12-18T09:18:04.684Z,75.70
2018-12-18T09:23:07.780Z,76.20
2018-12-18T09:28:12.973Z,75.70
2018-12-18T09:33:16.015Z,75.60
2018-12-18T09:38:24.421Z,75.60
2018-12-18T09:43:32.710Z,76.80
2018-12-18T09:48:36.137Z,76.50
2018-12-18T09:53:39.724Z,75.30
2018-12-18T09:58:42.710Z,75.80
2018-12-18T10:03:45.285Z,75.40
2018-12-18T10:08:48.422Z,74.60
2018-12-18T10:13:51.685Z,74.50
2018-12-18T10:18:54.422Z,74.30
2018-12-18T10:23:57.580Z,74.20
2018-12-18T10:29:01.282Z,74.40
2018-12-18T10:34:05.159Z,73.30
2018-12-18T10:39:08.157Z,73.30
2018-12-18T10:44:10.806Z,75.30
2018-12-18T10:49:13.783Z,74.90
2018-12-18T10:54:16.457Z,73.70
2018-12-18T10:59:21.646Z,72.90
2018-12-18T11:04:24.514Z,73.40
2018-12-18T11:09:27.256Z,73.40
2018-12-18T11:14:30.466Z,72.90
2018-12-18T11:19:33.104Z,72.60
2018-12-18T11:24:36.916Z,73.30
2018-12-18T11:29:39.494Z,73.20
2018-12-18T11:34:42.076Z,72.50
2018-12-18T11:39:45.669Z,73.10
2018-12-18T11:44:48.519Z,67.10
2018-12-18T11:49:51.105Z,64.00
2018-12-18T11:54:54.231Z,64.70
2018-12-18T11:59:57.655Z,59.80
2018-12-18T12:05:00.495Z,53.10
2018-12-18T12:10:03.375Z,54.00
2018-12-18T12:15:08.575Z,57.90
2018-12-18T12:20:11.152Z,63.90
2018-12-18T12:25:13.738Z,67.00
2018-12-18T12:30:16.329Z,67.70
2018-12-18T12:35:19.473Z,68.00
2018-12-18T12:40:22.333Z,69.60
2018-12-18T12:45:25.450Z,69.70
2018-12-18T12:50:28.435Z,67.90
2018-12-18T12:55:31.018Z,67.60
2018-12-18T13:00:33.906Z,67.80
2018-12-18T13:05:36.493Z,66.90
2018-12-18T13:10:39.069Z,64.80
2018-12-18T13:15:42.272Z,64.50
2018-12-18T13:20:44.858Z,64.80
2018-12-18T13:25:47.444Z,65.20
2018-12-18T13:30:50.484Z,65.10
2018-12-18T13:35:53.148Z,65.60
2018-12-18T13:40:55.884Z,63.30
2018-12-18T13:45:58.456Z,66.60
2018-12-18T13:51:01.638Z,65.90
2018-12-18T13:56:04.238Z,68.10
2018-12-18T14:01:07.168Z,68.30
2018-12-18T14:06:09.751Z,69.50
2018-12-18T14:11:12.385Z,70.40
2018-12-18T14:16:17.480Z,71.10
2018-12-18T14:21:20.106Z,70.60
2018-12-18T14:26:24.322Z,71.40
2018-12-18T14:31:27.533Z,71.30
2018-12-18T14:36:30.154Z,71.30
2018-12-18T14:41:33.854Z,70.80
2018-12-18T14:46:37.006Z,70.50
2018-12-18T14:51:39.651Z,70.90
2018-12-18T14:56:42.889Z,73.20
2018-12-18T15:01:52.060Z,73.00
2018-12-18T15:06:54.902Z,73.60
2018-12-18T15:11:58.186Z,72.50
2018-12-18T15:17:00.750Z,72.70
2018-12-18T15:22:03.337Z,74.20
2018-12-18T15:27:07.301Z,74.70
2018-12-18T15:32:09.915Z,73.80
2018-12-18T15:37:12.884Z,73.00
2018-12-18T15:42:15.473Z,72.70
2018-12-18T15:47:18.586Z,72.30
2018-12-18T15:52:21.150Z,72.30
2018-12-18T15:57:24.643Z,71.80
2018-12-18T16:02:27.478Z,71.70
2018-12-18T16:07:32.926Z,72.00
2018-12-18T16:12:37.145Z,72.00
2018-12-18T16:17:40.494Z,72.20
2018-12-18T16:22:43.093Z,71.90
2018-12-18T16:27:45.677Z,72.80
2018-12-18T16:32:48.526Z,73.00
2018-12-18T16:37:51.903Z,72.10
2018-12-18T16:42:54.973Z,71.50
2018-12-18T16:47:58.090Z,70.60
2018-12-18T16:53:00.762Z,71.00
2018-12-18T16:58:10.626Z,70.00
2018-12-18T17:03:15.243Z,70.00
2018-12-18T17:08:17.883Z,70.10
2018-12-18T17:13:20.492Z,69.60
2018-12-18T17:18:23.076Z,69.50
2018-12-18T17:23:25.682Z,69.40
2018-12-18T17:28:29.389Z,70.10
2018-12-18T17:33:32.004Z,69.80
2018-12-18T17:38:34.995Z,69.60
2018-12-18T17:43:38.832Z,69.60
2018-12-18T17:48:41.689Z,69.70
2018-12-18T17:53:44.741Z,70.00
2018-12-18T17:58:48.048Z,70.00
2018-12-18T18:03:50.649Z,71.30
2018-12-18T18:08:53.288Z,73.90
2018-12-18T18:13:55.886Z,74.40
2018-12-18T18:18:58.757Z,73.70
2018-12-18T18:24:01.431Z,74.40
2018-12-18T18:29:04.111Z,73.60
2018-12-18T18:34:09.150Z,72.60
2018-12-18T18:39:15.330Z,73.40
2018-12-18T18:44:20.965Z,72.90
2018-12-18T18:49:24.016Z,72.70
2018-12-18T18:54:27.067Z,72.40
2018-12-18T18:59:30.402Z,71.80
2018-12-18T19:04:34.791Z,71.30
2018-12-18T19:09:38.699Z,71.30
2018-12-18T19:14:42.365Z,71.00
2018-12-18T19:19:45.132Z,70.60
2018-12-18T19:24:48.622Z,70.60
2018-12-18T19:29:51.869Z,71.20
2018-12-18T19:34:54.994Z,71.00
2018-12-18T19:40:00.497Z,71.30
2018-12-18T19:45:03.765Z,71.30
2018-12-18T19:50:08.449Z,71.00
2018-12-18T19:55:11.029Z,70.90
2018-12-18T20:00:13.987Z,70.80
2018-12-18T20:05:16.913Z,70.50
2018-12-18T20:10:23.000Z,70.70
2018-12-18T20:15:25.870Z,71.00
2018-12-18T20:20:30.385Z,70.40
2018-12-18T20:25:33.629Z,70.80
2018-12-18T20:30:38.328Z,70.90
2018-12-18T20:35:41.484Z,70.80
2018-12-18T20:40:46.527Z,71.10
2018-12-18T20:45:49.110Z,70.80
2018-12-18T20:50:51.718Z,71.00
2018-12-18T20:55:55.201Z,71.40
2018-12-18T21:00:57.814Z,71.40
2018-12-18T21:06:00.392Z,71.40
2018-12-18T21:11:04.107Z,71.70
2018-12-18T21:16:06.713Z,71.70
2018-12-18T21:21:15.390Z,72.00
2018-12-18T21:26:14.856Z,71.70
2018-12-18T21:31:17.439Z,71.60
2018-12-18T21:36:20.672Z,71.70
2018-12-18T21:41:23.279Z,72.10
2018-12-18T21:46:25.870Z,71.70
2018-12-18T21:51:28.494Z,71.60
2018-12-18T21:56:39.577Z,71.10
2018-12-18T22:01:42.194Z,70.90
2018-12-18T22:06:45.345Z,71.30
2018-12-18T22:11:47.971Z,71.40
2018-12-18T22:16:50.566Z,70.70
2018-12-18T22:21:53.519Z,70.50
2018-12-18T22:26:56.108Z,70.30
2018-12-18T22:31:59.960Z,70.50
2018-12-18T22:37:02.554Z,70.60
2018-12-18T22:42:09.222Z,70.20
2018-12-18T22:47:11.828Z,70.00
2018-12-18T22:52:15.118Z,70.50
2018-12-18T22:57:18.422Z,71.30
2018-12-18T23:02:21.457Z,71.80
2018-12-18T23:07:24.221Z,72.10
2018-12-18T23:12:26.839Z,73.50
2018-12-18T23:17:31.346Z,74.30
2018-12-18T23:22:34.768Z,74.00
2018-12-18T23:27:37.341Z,75.30
2018-12-18T23:32:40.495Z,77.00
2018-12-18T23:37:43.118Z,78.60
2018-12-18T23:42:48.864Z,79.00
2018-12-18T23:47:51.770Z,78.60
2018-12-18T23:52:54.780Z,79.00
2018-12-18T23:57:57.362Z,78.40
